sensor_id;sensor_type;location;lat;lon;timestamp;temperature;humidity
9802;DHT22;4940;50.900;4.672;2022-10-20T00:00:06;12.70;99.90
9802;DHT22;4940;50.900;4.672;2022-10-20T00:05:03;12.60;99.90
9802;DHT22;4940;50.900;4.672;2022-10-20T00:22:15;12.40;99.90
9802;DHT22;4940;50.900;4.672;2022-10-20T00:34:32;12.30;99.90
9802;DHT22;4940;50.900;4.672;2022-10-20T00:39:28;12.30;99.90
9802;DHT22;4940;50.900;4.672;2022-10-20T00:44:52;12.30;99.90
9802;DHT22;4940;50.900;4.672;2022-10-20T00:47:23;12.20;99.90
9802;DHT22;4940;50.900;4.672;2022-10-20T00:52:21;12.50;99.90
9802;DHT22;4940;50.900;4.672;2022-10-20T00:54:50;12.30;99.90
9802;DHT22;4940;50.900;4.672;2022-10-20T00:57:17;12.40;99.90
9802;DHT22;4940;50.900;4.672;2022-10-20T00:59:45;12.30;99.90
9802;DHT22;4940;50.900;4.672;2022-10-20T01:02:12;12.30;99.90
9802;DHT22;4940;50.900;4.672;2022-10-20T01:04:40;12.30;99.90
9802;DHT22;4940;50.900;4.672;2022-10-20T01:09:35;12.30;99.90
9802;DHT22;4940;50.900;4.672;2022-10-20T01:12:14;12.30;99.90
9802;DHT22;4940;50.900;4.672;2022-10-20T01:14:51;12.30;99.90
9802;DHT22;4940;50.900;4.672;2022-10-20T01:17:26;12.30;99.90
9802;DHT22;4940;50.900;4.672;2022-10-20T01:23:40;12.20;99.90
9802;DHT22;4940;50.900;4.672;2022-10-20T01:29:23;12.20;99.90
9802;DHT22;4940;50.900;4.672;2022-10-20T01:31:57;12.10;99.90
9802;DHT22;4940;50.900;4.672;2022-10-20T01:34:30;12.20;99.90
9802;DHT22;4940;50.900;4.672;2022-10-20T01:37:01;12.20;99.90
9802;DHT22;4940;50.900;4.672;2022-10-20T01:39:34;12.20;99.90
9802;DHT22;4940;50.900;4.672;2022-10-20T01:42:08;12.20;99.90
9802;DHT22;4940;50.900;4.672;2022-10-20T01:44:39;12.20;99.90
9802;DHT22;4940;50.900;4.672;2022-10-20T01:47:08;12.30;99.90
9802;DHT22;4940;50.900;4.672;2022-10-20T01:54:31;12.30;99.90
9802;DHT22;4940;50.900;4.672;2022-10-20T01:57:09;12.30;99.90
9802;DHT22;4940;50.900;4.672;2022-10-20T01:59:53;12.30;99.90
9802;DHT22;4940;50.900;4.672;2022-10-20T02:02:42;12.30;99.90
9802;DHT22;4940;50.900;4.672;2022-10-20T02:05:22;12.40;99.90
9802;DHT22;4940;50.900;4.672;2022-10-20T02:07:53;12.40;99.90
9802;DHT22;4940;50.900;4.672;2022-10-20T02:10:29;12.30;99.90
9802;DHT22;4940;50.900;4.672;2022-10-20T02:12:59;12.30;99.90
9802;DHT22;4940;50.900;4.672;2022-10-20T02:15:31;12.10;99.90
9802;DHT22;4940;50.900;4.672;2022-10-20T02:18:00;12.30;99.90
9802;DHT22;4940;50.900;4.672;2022-10-20T02:20:30;12.30;99.90
9802;DHT22;4940;50.900;4.672;2022-10-20T02:22:58;12.30;99.90
9802;DHT22;4940;50.900;4.672;2022-10-20T02:25:27;12.30;99.90
9802;DHT22;4940;50.900;4.672;2022-10-20T02:27:57;12.30;99.90
9802;DHT22;4940;50.900;4.672;2022-10-20T02:32:54;12.30;99.90
9802;DHT22;4940;50.900;4.672;2022-10-20T02:35:25;12.30;99.90
9802;DHT22;4940;50.900;4.672;2022-10-20T02:45:15;12.40;99.90
9802;DHT22;4940;50.900;4.672;2022-10-20T02:50:11;12.30;99.90
9802;DHT22;4940;50.900;4.672;2022-10-20T02:55:07;12.40;99.90
9802;DHT22;4940;50.900;4.672;2022-10-20T03:07:25;12.30;99.90
9802;DHT22;4940;50.900;4.672;2022-10-20T03:12:20;12.20;99.90
9802;DHT22;4940;50.900;4.672;2022-10-20T03:24:38;12.30;99.90
9802;DHT22;4940;50.900;4.672;2022-10-20T03:41:51;12.40;99.90
9802;DHT22;4940;50.900;4.672;2022-10-20T03:54:07;12.40;99.90
9802;DHT22;4940;50.900;4.672;2022-10-20T03:59:03;12.40;99.90
9802;DHT22;4940;50.900;4.672;2022-10-20T04:01:31;12.40;99.90
9802;DHT22;4940;50.900;4.672;2022-10-20T04:16:20;12.30;99.90
9802;DHT22;4940;50.900;4.672;2022-10-20T04:26:09;12.20;99.90
9802;DHT22;4940;50.900;4.672;2022-10-20T04:31:04;12.10;99.90
9802;DHT22;4940;50.900;4.672;2022-10-20T04:33:34;12.10;99.90
9802;DHT22;4940;50.900;4.672;2022-10-20T04:36:03;12.10;99.90
9802;DHT22;4940;50.900;4.672;2022-10-20T04:38:32;12.10;99.90
9802;DHT22;4940;50.900;4.672;2022-10-20T04:41:01;12.00;99.90
9802;DHT22;4940;50.900;4.672;2022-10-20T04:45:59;12.00;99.90
9802;DHT22;4940;50.900;4.672;2022-10-20T04:51:02;12.00;99.90
9802;DHT22;4940;50.900;4.672;2022-10-20T04:58:25;12.00;99.90
9802;DHT22;4940;50.900;4.672;2022-10-20T05:00:52;12.00;99.90
9802;DHT22;4940;50.900;4.672;2022-10-20T05:08:16;12.00;99.90
9802;DHT22;4940;50.900;4.672;2022-10-20T05:13:11;11.90;99.90
9802;DHT22;4940;50.900;4.672;2022-10-20T05:25:28;12.00;99.90
9802;DHT22;4940;50.900;4.672;2022-10-20T05:27:57;12.00;99.90
9802;DHT22;4940;50.900;4.672;2022-10-20T05:42:42;12.10;99.90
9802;DHT22;4940;50.900;4.672;2022-10-20T05:59:54;12.30;99.90
9802;DHT22;4940;50.900;4.672;2022-10-20T06:17:07;12.30;99.90
9802;DHT22;4940;50.900;4.672;2022-10-20T06:19:36;12.50;99.90
9802;DHT22;4940;50.900;4.672;2022-10-20T06:31:54;12.70;99.90
9802;DHT22;4940;50.900;4.672;2022-10-20T06:34:24;12.70;99.90
9802;DHT22;4940;50.900;4.672;2022-10-20T06:36:51;12.70;99.90
9802;DHT22;4940;50.900;4.672;2022-10-20T06:39:20;12.80;99.90
9802;DHT22;4940;50.900;4.672;2022-10-20T06:51:39;12.90;99.90
9802;DHT22;4940;50.900;4.672;2022-10-20T06:56:35;13.00;99.90
9802;DHT22;4940;50.900;4.672;2022-10-20T06:59:03;13.10;99.90
9802;DHT22;4940;50.900;4.672;2022-10-20T07:01:32;13.10;99.90
9802;DHT22;4940;50.900;4.672;2022-10-20T07:04:00;13.10;99.90
9802;DHT22;4940;50.900;4.672;2022-10-20T07:06:29;13.10;99.90
9802;DHT22;4940;50.900;4.672;2022-10-20T07:08:58;13.20;99.90
9802;DHT22;4940;50.900;4.672;2022-10-20T07:11:27;13.20;99.90
9802;DHT22;4940;50.900;4.672;2022-10-20T07:13:56;13.30;99.90
9802;DHT22;4940;50.900;4.672;2022-10-20T07:16:25;13.30;99.90
9802;DHT22;4940;50.900;4.672;2022-10-20T07:21:22;13.30;99.90
9802;DHT22;4940;50.900;4.672;2022-10-20T07:23:51;13.30;99.90
9802;DHT22;4940;50.900;4.672;2022-10-20T07:26:23;13.40;99.90
9802;DHT22;4940;50.900;4.672;2022-10-20T07:28:52;13.40;99.90
9802;DHT22;4940;50.900;4.672;2022-10-20T07:31:21;13.40;99.90
9802;DHT22;4940;50.900;4.672;2022-10-20T07:33:49;13.50;99.90
9802;DHT22;4940;50.900;4.672;2022-10-20T07:36:17;13.50;99.90
9802;DHT22;4940;50.900;4.672;2022-10-20T07:38:45;13.50;99.90
9802;DHT22;4940;50.900;4.672;2022-10-20T07:43:42;13.60;99.90
9802;DHT22;4940;50.900;4.672;2022-10-20T07:46:10;13.60;99.90
9802;DHT22;4940;50.900;4.672;2022-10-20T07:48:37;13.60;99.90
9802;DHT22;4940;50.900;4.672;2022-10-20T07:51:24;13.60;99.90
9802;DHT22;4940;50.900;4.672;2022-10-20T07:53:55;13.60;99.90
9802;DHT22;4940;50.900;4.672;2022-10-20T07:56:23;13.90;99.90
9802;DHT22;4940;50.900;4.672;2022-10-20T07:58:51;13.80;99.90
9802;DHT22;4940;50.900;4.672;2022-10-20T08:11:09;14.10;99.90
9802;DHT22;4940;50.900;4.672;2022-10-20T08:16:07;14.20;99.90
9802;DHT22;4940;50.900;4.672;2022-10-20T08:21:07;14.50;99.90
9802;DHT22;4940;50.900;4.672;2022-10-20T08:23:37;14.30;99.90
9802;DHT22;4940;50.900;4.672;2022-10-20T08:31:00;14.50;99.90
9802;DHT22;4940;50.900;4.672;2022-10-20T08:33:29;14.50;99.90
9802;DHT22;4940;50.900;4.672;2022-10-20T08:36:01;14.60;99.90
9802;DHT22;4940;50.900;4.672;2022-10-20T08:48:22;14.70;99.90
9802;DHT22;4940;50.900;4.672;2022-10-20T08:50:52;14.70;99.90
9802;DHT22;4940;50.900;4.672;2022-10-20T08:53:21;14.70;99.90
9802;DHT22;4940;50.900;4.672;2022-10-20T08:55:50;14.70;99.90
9802;DHT22;4940;50.900;4.672;2022-10-20T08:58:19;14.80;99.90
9802;DHT22;4940;50.900;4.672;2022-10-20T09:00:49;14.70;99.90
9802;DHT22;4940;50.900;4.672;2022-10-20T09:03:18;14.70;99.90
9802;DHT22;4940;50.900;4.672;2022-10-20T09:05:49;14.80;99.90
9802;DHT22;4940;50.900;4.672;2022-10-20T09:08:20;14.80;99.90
9802;DHT22;4940;50.900;4.672;2022-10-20T09:11:10;14.80;99.90
9802;DHT22;4940;50.900;4.672;2022-10-20T09:13:58;14.80;99.90
9802;DHT22;4940;50.900;4.672;2022-10-20T09:16:45;14.80;99.90
9802;DHT22;4940;50.900;4.672;2022-10-20T09:19:31;14.70;99.90
9802;DHT22;4940;50.900;4.672;2022-10-20T09:22:03;14.70;99.90
9802;DHT22;4940;50.900;4.672;2022-10-20T09:24:34;14.70;99.90
9802;DHT22;4940;50.900;4.672;2022-10-20T09:27:19;14.60;99.90
9802;DHT22;4940;50.900;4.672;2022-10-20T09:32:19;14.60;99.90
9802;DHT22;4940;50.900;4.672;2022-10-20T09:34:47;14.70;99.90
9802;DHT22;4940;50.900;4.672;2022-10-20T09:37:17;14.60;99.90
9802;DHT22;4940;50.900;4.672;2022-10-20T09:39:52;14.70;99.90
9802;DHT22;4940;50.900;4.672;2022-10-20T09:42:22;14.70;99.90
9802;DHT22;4940;50.900;4.672;2022-10-20T09:44:53;14.70;99.90
9802;DHT22;4940;50.900;4.672;2022-10-20T09:47:22;14.80;99.90
9802;DHT22;4940;50.900;4.672;2022-10-20T09:49:55;14.80;99.90
9802;DHT22;4940;50.900;4.672;2022-10-20T09:52:25;14.80;99.90
9802;DHT22;4940;50.900;4.672;2022-10-20T09:54:59;14.80;99.90
9802;DHT22;4940;50.900;4.672;2022-10-20T09:59:55;14.90;99.90
9802;DHT22;4940;50.900;4.672;2022-10-20T10:02:28;15.00;99.90
9802;DHT22;4940;50.900;4.672;2022-10-20T10:05:15;15.00;99.90
9802;DHT22;4940;50.900;4.672;2022-10-20T10:07:55;15.00;99.90
9802;DHT22;4940;50.900;4.672;2022-10-20T10:10:26;15.10;99.90
9802;DHT22;4940;50.900;4.672;2022-10-20T10:12:55;15.10;99.90
9802;DHT22;4940;50.900;4.672;2022-10-20T10:15:28;15.20;99.90
9802;DHT22;4940;50.900;4.672;2022-10-20T10:20:33;15.30;99.90
9802;DHT22;4940;50.900;4.672;2022-10-20T10:23:22;15.30;99.90
9802;DHT22;4940;50.900;4.672;2022-10-20T10:25:53;15.40;99.90
9802;DHT22;4940;50.900;4.672;2022-10-20T10:28:30;15.50;99.90
9802;DHT22;4940;50.900;4.672;2022-10-20T10:31:07;15.60;99.90
9802;DHT22;4940;50.900;4.672;2022-10-20T10:36:05;15.80;99.90
9802;DHT22;4940;50.900;4.672;2022-10-20T10:38:34;16.00;99.90
9802;DHT22;4940;50.900;4.672;2022-10-20T10:41:07;16.10;99.90
9802;DHT22;4940;50.900;4.672;2022-10-20T10:43:40;16.10;99.90
9802;DHT22;4940;50.900;4.672;2022-10-20T10:46:16;16.20;99.90
9802;DHT22;4940;50.900;4.672;2022-10-20T10:49:05;16.20;99.90
9802;DHT22;4940;50.900;4.672;2022-10-20T10:51:46;16.30;99.90
9802;DHT22;4940;50.900;4.672;2022-10-20T10:54:27;16.40;99.90
9802;DHT22;4940;50.900;4.672;2022-10-20T10:57:01;16.50;99.90
9802;DHT22;4940;50.900;4.672;2022-10-20T10:59:32;16.60;99.90
9802;DHT22;4940;50.900;4.672;2022-10-20T11:02:28;16.70;99.90
9802;DHT22;4940;50.900;4.672;2022-10-20T11:05:31;16.60;99.90
9802;DHT22;4940;50.900;4.672;2022-10-20T11:08:07;16.80;99.90
9802;DHT22;4940;50.900;4.672;2022-10-20T11:10:45;17.00;99.90
9802;DHT22;4940;50.900;4.672;2022-10-20T11:13:26;17.20;99.90
9802;DHT22;4940;50.900;4.672;2022-10-20T11:16:14;17.30;99.90
9802;DHT22;4940;50.900;4.672;2022-10-20T11:21:42;17.40;99.90
9802;DHT22;4940;50.900;4.672;2022-10-20T11:24:21;17.50;99.90
9802;DHT22;4940;50.900;4.672;2022-10-20T11:27:01;17.60;99.90
9802;DHT22;4940;50.900;4.672;2022-10-20T11:29:31;17.70;99.90
9802;DHT22;4940;50.900;4.672;2022-10-20T11:32:06;17.70;99.90
9802;DHT22;4940;50.900;4.672;2022-10-20T11:34:37;17.80;99.90
9802;DHT22;4940;50.900;4.672;2022-10-20T11:37:13;17.70;99.90
9802;DHT22;4940;50.900;4.672;2022-10-20T11:39:48;18.00;99.90
9802;DHT22;4940;50.900;4.672;2022-10-20T11:42:24;18.00;99.90
9802;DHT22;4940;50.900;4.672;2022-10-20T11:44:56;18.20;99.90
9802;DHT22;4940;50.900;4.672;2022-10-20T11:47:29;18.20;99.90
9802;DHT22;4940;50.900;4.672;2022-10-20T11:50:03;18.30;99.90
9802;DHT22;4940;50.900;4.672;2022-10-20T11:52:53;18.30;99.90
9802;DHT22;4940;50.900;4.672;2022-10-20T11:55:43;18.30;99.90
9802;DHT22;4940;50.900;4.672;2022-10-20T11:58:30;18.30;99.90
9802;DHT22;4940;50.900;4.672;2022-10-20T12:01:17;18.40;99.90
9802;DHT22;4940;50.900;4.672;2022-10-20T12:07:28;18.40;99.90
9802;DHT22;4940;50.900;4.672;2022-10-20T12:10:12;18.50;99.90
9802;DHT22;4940;50.900;4.672;2022-10-20T12:12:49;18.50;99.90
9802;DHT22;4940;50.900;4.672;2022-10-20T12:15:20;18.60;99.90
9802;DHT22;4940;50.900;4.672;2022-10-20T12:17:50;18.70;99.90
9802;DHT22;4940;50.900;4.672;2022-10-20T12:20:40;18.80;99.90
9802;DHT22;4940;50.900;4.672;2022-10-20T12:26:35;18.90;99.90
9802;DHT22;4940;50.900;4.672;2022-10-20T12:29:46;18.90;99.90
9802;DHT22;4940;50.900;4.672;2022-10-20T12:32:51;19.00;99.90
9802;DHT22;4940;50.900;4.672;2022-10-20T12:35:56;19.10;99.90
9802;DHT22;4940;50.900;4.672;2022-10-20T12:38:23;19.20;99.90
9802;DHT22;4940;50.900;4.672;2022-10-20T12:40:56;19.30;99.90
9802;DHT22;4940;50.900;4.672;2022-10-20T12:43:33;19.30;99.90
9802;DHT22;4940;50.900;4.672;2022-10-20T12:46:08;19.30;99.90
9802;DHT22;4940;50.900;4.672;2022-10-20T12:48:41;19.30;99.90
9802;DHT22;4940;50.900;4.672;2022-10-20T12:51:20;19.30;99.90
9802;DHT22;4940;50.900;4.672;2022-10-20T12:53:58;19.30;99.90
9802;DHT22;4940;50.900;4.672;2022-10-20T12:56:32;19.30;99.90
9802;DHT22;4940;50.900;4.672;2022-10-20T13:02:45;19.30;99.90
9802;DHT22;4940;50.900;4.672;2022-10-20T13:05:42;19.20;99.90
9802;DHT22;4940;50.900;4.672;2022-10-20T13:08:25;19.40;99.90
9802;DHT22;4940;50.900;4.672;2022-10-20T13:10:53;19.40;99.90
9802;DHT22;4940;50.900;4.672;2022-10-20T13:13:38;19.20;99.90
9802;DHT22;4940;50.900;4.672;2022-10-20T13:16:17;19.40;99.90
9802;DHT22;4940;50.900;4.672;2022-10-20T13:18:47;19.40;99.90
9802;DHT22;4940;50.900;4.672;2022-10-20T13:21:26;19.60;99.90
9802;DHT22;4940;50.900;4.672;2022-10-20T13:23:57;19.40;99.90
9802;DHT22;4940;50.900;4.672;2022-10-20T13:26:30;19.50;99.90
9802;DHT22;4940;50.900;4.672;2022-10-20T13:31:31;19.40;99.90
9802;DHT22;4940;50.900;4.672;2022-10-20T13:34:05;19.50;99.90
9802;DHT22;4940;50.900;4.672;2022-10-20T13:36:56;19.50;99.90
9802;DHT22;4940;50.900;4.672;2022-10-20T13:39:36;19.30;99.90
9802;DHT22;4940;50.900;4.672;2022-10-20T13:42:14;19.70;99.90
9802;DHT22;4940;50.900;4.672;2022-10-20T13:44:50;19.60;99.90
9802;DHT22;4940;50.900;4.672;2022-10-20T13:47:44;19.60;99.90
9802;DHT22;4940;50.900;4.672;2022-10-20T13:50:15;19.70;99.90
9802;DHT22;4940;50.900;4.672;2022-10-20T13:52:46;19.90;99.90
9802;DHT22;4940;50.900;4.672;2022-10-20T13:55:17;19.80;99.90
9802;DHT22;4940;50.900;4.672;2022-10-20T13:57:51;19.80;99.90
9802;DHT22;4940;50.900;4.672;2022-10-20T14:00:21;19.80;99.90
9802;DHT22;4940;50.900;4.672;2022-10-20T14:02:57;19.80;99.90
9802;DHT22;4940;50.900;4.672;2022-10-20T14:05:26;19.90;99.90
9802;DHT22;4940;50.900;4.672;2022-10-20T14:07:55;19.70;99.90
9802;DHT22;4940;50.900;4.672;2022-10-20T14:10:25;19.80;99.90
9802;DHT22;4940;50.900;4.672;2022-10-20T14:12:54;19.80;99.90
9802;DHT22;4940;50.900;4.672;2022-10-20T14:15:28;19.80;99.90
9802;DHT22;4940;50.900;4.672;2022-10-20T14:17:58;19.90;99.90
9802;DHT22;4940;50.900;4.672;2022-10-20T14:20:28;19.90;99.90
9802;DHT22;4940;50.900;4.672;2022-10-20T14:22:57;19.90;99.90
9802;DHT22;4940;50.900;4.672;2022-10-20T14:25:26;19.90;99.90
9802;DHT22;4940;50.900;4.672;2022-10-20T14:27:54;19.90;99.90
9802;DHT22;4940;50.900;4.672;2022-10-20T14:30:22;20.00;99.90
9802;DHT22;4940;50.900;4.672;2022-10-20T14:32:51;19.90;99.90
9802;DHT22;4940;50.900;4.672;2022-10-20T14:35:25;20.00;99.90
9802;DHT22;4940;50.900;4.672;2022-10-20T14:37:58;20.00;99.90
9802;DHT22;4940;50.900;4.672;2022-10-20T14:40:30;20.00;99.90
9802;DHT22;4940;50.900;4.672;2022-10-20T14:43:01;20.00;99.90
9802;DHT22;4940;50.900;4.672;2022-10-20T14:45:29;20.10;99.90
9802;DHT22;4940;50.900;4.672;2022-10-20T14:47:57;20.10;99.90
9802;DHT22;4940;50.900;4.672;2022-10-20T14:50:31;20.00;99.90
9802;DHT22;4940;50.900;4.672;2022-10-20T14:53:26;20.10;99.90
9802;DHT22;4940;50.900;4.672;2022-10-20T14:58:30;22.20;99.90
9802;DHT22;4940;50.900;4.672;2022-10-20T15:01:17;20.10;99.90
9802;DHT22;4940;50.900;4.672;2022-10-20T15:03:46;20.10;99.90
9802;DHT22;4940;50.900;4.672;2022-10-20T15:08:56;20.20;99.90
9802;DHT22;4940;50.900;4.672;2022-10-20T15:11:25;20.20;99.90
9802;DHT22;4940;50.900;4.672;2022-10-20T15:13:54;20.20;99.90
9802;DHT22;4940;50.900;4.672;2022-10-20T15:16:39;20.20;99.90
9802;DHT22;4940;50.900;4.672;2022-10-20T15:19:11;20.20;99.90
9802;DHT22;4940;50.900;4.672;2022-10-20T15:24:07;20.30;99.90
9802;DHT22;4940;50.900;4.672;2022-10-20T15:26:35;20.20;99.90
9802;DHT22;4940;50.900;4.672;2022-10-20T15:33:57;20.30;99.90
9802;DHT22;4940;50.900;4.672;2022-10-20T15:36:26;20.20;99.90
9802;DHT22;4940;50.900;4.672;2022-10-20T15:38:57;20.20;99.90
9802;DHT22;4940;50.900;4.672;2022-10-20T15:41:26;20.10;99.90
9802;DHT22;4940;50.900;4.672;2022-10-20T15:43:55;20.10;99.90
9802;DHT22;4940;50.900;4.672;2022-10-20T15:46:22;20.10;99.90
9802;DHT22;4940;50.900;4.672;2022-10-20T15:51:21;20.30;99.90
9802;DHT22;4940;50.900;4.672;2022-10-20T15:53:49;20.10;99.90
9802;DHT22;4940;50.900;4.672;2022-10-20T15:56:16;20.10;99.90
9802;DHT22;4940;50.900;4.672;2022-10-20T15:58:45;20.00;99.90
9802;DHT22;4940;50.900;4.672;2022-10-20T16:01:15;20.10;99.90
9802;DHT22;4940;50.900;4.672;2022-10-20T16:03:43;20.10;99.90
9802;DHT22;4940;50.900;4.672;2022-10-20T16:06:10;20.00;99.90
9802;DHT22;4940;50.900;4.672;2022-10-20T16:08:38;20.00;99.90
9802;DHT22;4940;50.900;4.672;2022-10-20T16:13:33;20.00;99.90
9802;DHT22;4940;50.900;4.672;2022-10-20T16:16:02;20.00;99.90
9802;DHT22;4940;50.900;4.672;2022-10-20T16:18:29;19.90;99.90
9802;DHT22;4940;50.900;4.672;2022-10-20T16:20:56;19.80;99.90
9802;DHT22;4940;50.900;4.672;2022-10-20T16:25:51;19.80;99.90
9802;DHT22;4940;50.900;4.672;2022-10-20T16:28:18;19.80;99.90
9802;DHT22;4940;50.900;4.672;2022-10-20T16:33:14;19.70;99.90
9802;DHT22;4940;50.900;4.672;2022-10-20T16:40:36;19.30;99.90
9802;DHT22;4940;50.900;4.672;2022-10-20T16:43:03;19.60;99.90
9802;DHT22;4940;50.900;4.672;2022-10-20T16:45:30;15.30;99.90
9802;DHT22;4940;50.900;4.672;2022-10-20T16:47:58;19.30;99.90
9802;DHT22;4940;50.900;4.672;2022-10-20T16:50:26;19.50;99.90
9802;DHT22;4940;50.900;4.672;2022-10-20T16:52:53;19.50;99.90
9802;DHT22;4940;50.900;4.672;2022-10-20T16:57:48;19.40;99.90
9802;DHT22;4940;50.900;4.672;2022-10-20T17:00:16;19.40;99.90
9802;DHT22;4940;50.900;4.672;2022-10-20T17:02:43;19.40;99.90
9802;DHT22;4940;50.900;4.672;2022-10-20T17:05:13;19.40;99.90
9802;DHT22;4940;50.900;4.672;2022-10-20T17:07:42;19.30;99.90
9802;DHT22;4940;50.900;4.672;2022-10-20T17:12:37;19.10;99.90
9802;DHT22;4940;50.900;4.672;2022-10-20T17:15:04;19.20;99.90
9802;DHT22;4940;50.900;4.672;2022-10-20T17:17:32;19.20;99.90
9802;DHT22;4940;50.900;4.672;2022-10-20T17:19:59;19.10;99.90
9802;DHT22;4940;50.900;4.672;2022-10-20T17:22:26;19.10;99.90
9802;DHT22;4940;50.900;4.672;2022-10-20T17:24:55;19.10;99.90
9802;DHT22;4940;50.900;4.672;2022-10-20T17:27:22;19.10;99.90
9802;DHT22;4940;50.900;4.672;2022-10-20T17:29:49;19.00;99.90
9802;DHT22;4940;50.900;4.672;2022-10-20T17:32:16;19.00;99.90
9802;DHT22;4940;50.900;4.672;2022-10-20T17:42:07;19.00;99.90
9802;DHT22;4940;50.900;4.672;2022-10-20T17:56:51;19.00;99.90
9802;DHT22;4940;50.900;4.672;2022-10-20T17:59:20;19.00;99.90
9802;DHT22;4940;50.900;4.672;2022-10-20T18:01:47;19.00;99.90
9802;DHT22;4940;50.900;4.672;2022-10-20T18:04:15;19.00;99.90
9802;DHT22;4940;50.900;4.672;2022-10-20T18:06:43;19.00;99.90
9802;DHT22;4940;50.900;4.672;2022-10-20T18:09:13;19.00;99.90
9802;DHT22;4940;50.900;4.672;2022-10-20T18:11:43;18.80;99.90
9802;DHT22;4940;50.900;4.672;2022-10-20T18:14:10;18.90;99.90
9802;DHT22;4940;50.900;4.672;2022-10-20T18:16:39;18.90;99.90
9802;DHT22;4940;50.900;4.672;2022-10-20T18:19:07;18.80;99.90
9802;DHT22;4940;50.900;4.672;2022-10-20T18:21:37;18.20;99.90
9802;DHT22;4940;50.900;4.672;2022-10-20T18:24:06;18.90;99.90
9802;DHT22;4940;50.900;4.672;2022-10-20T18:26:35;18.90;99.90
9802;DHT22;4940;50.900;4.672;2022-10-20T18:29:03;18.90;99.90
9802;DHT22;4940;50.900;4.672;2022-10-20T18:31:31;18.90;99.90
9802;DHT22;4940;50.900;4.672;2022-10-20T18:34:02;18.90;99.90
9802;DHT22;4940;50.900;4.672;2022-10-20T18:38:57;18.80;99.90
9802;DHT22;4940;50.900;4.672;2022-10-20T18:41:26;18.80;99.90
9802;DHT22;4940;50.900;4.672;2022-10-20T18:43:54;18.80;99.90
9802;DHT22;4940;50.900;4.672;2022-10-20T18:46:22;18.80;99.90
9802;DHT22;4940;50.900;4.672;2022-10-20T18:48:49;18.70;99.90
9802;DHT22;4940;50.900;4.672;2022-10-20T18:51:18;18.70;99.90
9802;DHT22;4940;50.900;4.672;2022-10-20T18:53:50;18.70;99.90
9802;DHT22;4940;50.900;4.672;2022-10-20T18:56:19;18.70;99.90
9802;DHT22;4940;50.900;4.672;2022-10-20T18:58:47;18.60;99.90
9802;DHT22;4940;50.900;4.672;2022-10-20T19:01:16;18.60;99.90
9802;DHT22;4940;50.900;4.672;2022-10-20T19:03:45;18.60;99.90
9802;DHT22;4940;50.900;4.672;2022-10-20T19:06:13;18.60;99.90
9802;DHT22;4940;50.900;4.672;2022-10-20T19:08:42;18.50;99.90
9802;DHT22;4940;50.900;4.672;2022-10-20T19:11:11;18.60;99.90
9802;DHT22;4940;50.900;4.672;2022-10-20T19:13:39;18.50;99.90
9802;DHT22;4940;50.900;4.672;2022-10-20T19:16:07;18.50;99.90
9802;DHT22;4940;50.900;4.672;2022-10-20T19:18:36;18.40;99.90
9802;DHT22;4940;50.900;4.672;2022-10-20T19:21:05;18.60;99.90
9802;DHT22;4940;50.900;4.672;2022-10-20T19:23:34;18.50;99.90
9802;DHT22;4940;50.900;4.672;2022-10-20T19:26:04;18.40;99.90
9802;DHT22;4940;50.900;4.672;2022-10-20T19:28:33;18.40;99.90
9802;DHT22;4940;50.900;4.672;2022-10-20T19:31:01;18.30;99.90
9802;DHT22;4940;50.900;4.672;2022-10-20T19:33:28;18.40;99.90
9802;DHT22;4940;50.900;4.672;2022-10-20T19:43:19;18.30;99.90
9802;DHT22;4940;50.900;4.672;2022-10-20T19:45:46;18.30;99.90
9802;DHT22;4940;50.900;4.672;2022-10-20T19:53:08;18.40;99.90
9802;DHT22;4940;50.900;4.672;2022-10-20T19:58:03;18.30;99.90
9802;DHT22;4940;50.900;4.672;2022-10-20T20:00:32;18.40;99.90
9802;DHT22;4940;50.900;4.672;2022-10-20T20:02:59;21.90;99.90
9802;DHT22;4940;50.900;4.672;2022-10-20T20:10:20;18.40;99.90
9802;DHT22;4940;50.900;4.672;2022-10-20T20:17:44;18.40;99.90
9802;DHT22;4940;50.900;4.672;2022-10-20T20:20:11;18.40;99.90
9802;DHT22;4940;50.900;4.672;2022-10-20T20:25:06;18.40;99.90
9802;DHT22;4940;50.900;4.672;2022-10-20T20:27:33;18.30;99.90
9802;DHT22;4940;50.900;4.672;2022-10-20T20:32:29;18.40;99.90
9802;DHT22;4940;50.900;4.672;2022-10-20T20:34:58;18.40;99.90
9802;DHT22;4940;50.900;4.672;2022-10-20T20:37:25;18.30;99.90
9802;DHT22;4940;50.900;4.672;2022-10-20T20:42:20;18.30;99.90
9802;DHT22;4940;50.900;4.672;2022-10-20T20:49:44;18.40;99.90
9802;DHT22;4940;50.900;4.672;2022-10-20T20:52:12;18.60;99.90
9802;DHT22;4940;50.900;4.672;2022-10-20T20:54:39;18.40;99.90
9802;DHT22;4940;50.900;4.672;2022-10-20T21:02:01;18.40;99.90
9802;DHT22;4940;50.900;4.672;2022-10-20T21:09:24;18.50;99.90
9802;DHT22;4940;50.900;4.672;2022-10-20T21:11:52;18.40;99.90
9802;DHT22;4940;50.900;4.672;2022-10-20T21:14:19;18.40;99.90
9802;DHT22;4940;50.900;4.672;2022-10-20T21:19:13;18.40;99.90
9802;DHT22;4940;50.900;4.672;2022-10-20T21:21:42;18.50;99.90
9802;DHT22;4940;50.900;4.672;2022-10-20T21:26:40;16.80;99.90
9802;DHT22;4940;50.900;4.672;2022-10-20T21:29:08;18.40;99.90
9802;DHT22;4940;50.900;4.672;2022-10-20T21:31:35;18.50;99.90
9802;DHT22;4940;50.900;4.672;2022-10-20T21:34:04;18.40;99.90
9802;DHT22;4940;50.900;4.672;2022-10-20T21:36:33;18.50;99.90
9802;DHT22;4940;50.900;4.672;2022-10-20T21:39:02;18.50;99.90
9802;DHT22;4940;50.900;4.672;2022-10-20T21:41:32;18.50;99.90
9802;DHT22;4940;50.900;4.672;2022-10-20T21:44:01;18.50;99.90
9802;DHT22;4940;50.900;4.672;2022-10-20T21:46:31;18.50;99.90
9802;DHT22;4940;50.900;4.672;2022-10-20T21:48:59;18.50;99.90
9802;DHT22;4940;50.900;4.672;2022-10-20T21:51:29;18.50;99.90
9802;DHT22;4940;50.900;4.672;2022-10-20T21:53:58;18.50;99.90
9802;DHT22;4940;50.900;4.672;2022-10-20T21:56:26;18.50;99.90
9802;DHT22;4940;50.900;4.672;2022-10-20T21:58:53;18.50;99.90
9802;DHT22;4940;50.900;4.672;2022-10-20T22:01:23;18.50;99.90
9802;DHT22;4940;50.900;4.672;2022-10-20T22:03:51;18.50;99.90
9802;DHT22;4940;50.900;4.672;2022-10-20T22:06:20;18.50;99.90
9802;DHT22;4940;50.900;4.672;2022-10-20T22:08:49;18.40;99.90
9802;DHT22;4940;50.900;4.672;2022-10-20T22:11:18;18.40;99.90
9802;DHT22;4940;50.900;4.672;2022-10-20T22:16:15;18.40;99.90
9802;DHT22;4940;50.900;4.672;2022-10-20T22:18:44;18.30;99.90
9802;DHT22;4940;50.900;4.672;2022-10-20T22:21:13;18.40;99.90
9802;DHT22;4940;50.900;4.672;2022-10-20T22:23:41;18.40;99.90
9802;DHT22;4940;50.900;4.672;2022-10-20T22:26:09;18.40;99.90
9802;DHT22;4940;50.900;4.672;2022-10-20T22:28:36;18.40;99.90
9802;DHT22;4940;50.900;4.672;2022-10-20T22:31:04;18.30;99.90
9802;DHT22;4940;50.900;4.672;2022-10-20T22:33:31;18.20;99.90
9802;DHT22;4940;50.900;4.672;2022-10-20T22:36:00;18.30;99.90
9802;DHT22;4940;50.900;4.672;2022-10-20T22:38:28;18.30;99.90
9802;DHT22;4940;50.900;4.672;2022-10-20T22:40:57;18.30;99.90
9802;DHT22;4940;50.900;4.672;2022-10-20T22:50:46;18.20;99.90
9802;DHT22;4940;50.900;4.672;2022-10-20T22:53:14;18.10;99.90
9802;DHT22;4940;50.900;4.672;2022-10-20T22:55:42;18.20;99.90
9802;DHT22;4940;50.900;4.672;2022-10-20T23:00:37;18.10;99.90
9802;DHT22;4940;50.900;4.672;2022-10-20T23:03:04;18.40;99.90
9802;DHT22;4940;50.900;4.672;2022-10-20T23:05:31;18.00;99.90
9802;DHT22;4940;50.900;4.672;2022-10-20T23:10:28;18.10;99.90
9802;DHT22;4940;50.900;4.672;2022-10-20T23:12:55;18.30;99.90
9802;DHT22;4940;50.900;4.672;2022-10-20T23:20:17;18.10;99.90